sensor_id;sensor_type;location;lat;lon;timestamp;pressure;altitude;pressure_sealevel;temperature;humidity
73101;BME280;61288;53.446;-2.266;2023-02-19T00:00:00;101801.41;;;7.78;97.58
73101;BME280;61288;53.446;-2.266;2023-02-19T00:02:26;101807.44;;;7.80;97.15
73101;BME280;61288;53.446;-2.266;2023-02-19T00:04:51;101820.31;;;7.82;96.78
73101;BME280;61288;53.446;-2.266;2023-02-19T00:07:17;101817.69;;;7.85;96.45
73101;BME280;61288;53.446;-2.266;2023-02-19T00:09:42;101825.47;;;7.84;96.48
73101;BME280;61288;53.446;-2.266;2023-02-19T00:12:08;101833.16;;;7.85;96.17
73101;BME280;61288;53.446;-2.266;2023-02-19T00:14:33;101845.25;;;7.85;96.08
73101;BME280;61288;53.446;-2.266;2023-02-19T00:16:59;101849.53;;;7.86;95.20
73101;BME280;61288;53.446;-2.266;2023-02-19T00:19:24;101850.41;;;7.85;95.27
73101;BME280;61288;53.446;-2.266;2023-02-19T00:21:51;101860.72;;;7.85;95.40
73101;BME280;61288;53.446;-2.266;2023-02-19T00:24:17;101850.41;;;7.83;95.11
73101;BME280;61288;53.446;-2.266;2023-02-19T00:26:46;101848.69;;;7.82;95.08
73101;BME280;61288;53.446;-2.266;2023-02-19T00:29:15;101834.97;;;7.80;95.03
73101;BME280;61288;53.446;-2.266;2023-02-19T00:31:41;101847.84;;;7.78;95.39
73101;BME280;61288;53.446;-2.266;2023-02-19T00:34:08;101852.19;;;7.78;95.48
73101;BME280;61288;53.446;-2.266;2023-02-19T00:36:36;101837.59;;;7.74;95.71
73101;BME280;61288;53.446;-2.266;2023-02-19T00:39:04;101847.94;;;7.72;95.26
73101;BME280;61288;53.446;-2.266;2023-02-19T00:41:30;101846.22;;;7.71;95.51
73101;BME280;61288;53.446;-2.266;2023-02-19T00:44:05;101832.50;;;7.68;95.48
73101;BME280;61288;53.446;-2.266;2023-02-19T00:46:41;101835.09;;;7.66;96.21
73101;BME280;61288;53.446;-2.266;2023-02-19T00:49:07;101829.97;;;7.64;95.92
73101;BME280;61288;53.446;-2.266;2023-02-19T00:51:36;101846.31;;;7.63;96.07
73101;BME280;61288;53.446;-2.266;2023-02-19T00:54:04;101842.88;;;7.63;95.69
73101;BME280;61288;53.446;-2.266;2023-02-19T00:56:29;101842.03;;;7.62;95.66
73101;BME280;61288;53.446;-2.266;2023-02-19T00:58:55;101854.06;;;7.62;95.79
73101;BME280;61288;53.446;-2.266;2023-02-19T01:01:21;101861.78;;;7.62;95.90
73101;BME280;61288;53.446;-2.266;2023-02-19T01:03:47;101857.50;;;7.61;95.88
73101;BME280;61288;53.446;-2.266;2023-02-19T01:06:15;101880.72;;;7.59;95.99
73101;BME280;61288;53.446;-2.266;2023-02-19T01:08:41;101882.47;;;7.59;96.54
73101;BME280;61288;53.446;-2.266;2023-02-19T01:11:08;101899.69;;;7.57;95.62
73101;BME280;61288;53.446;-2.266;2023-02-19T01:13:37;101915.16;;;7.55;94.94
73101;BME280;61288;53.446;-2.266;2023-02-19T01:18:32;101910.06;;;7.49;92.41
73101;BME280;61288;53.446;-2.266;2023-02-19T01:20:58;101917.84;;;7.43;90.52
73101;BME280;61288;53.446;-2.266;2023-02-19T01:23:24;101917.91;;;7.33;88.63
73101;BME280;61288;53.446;-2.266;2023-02-19T01:25:50;101900.81;;;7.21;88.04
73101;BME280;61288;53.446;-2.266;2023-02-19T01:28:16;101910.31;;;7.10;88.21
73101;BME280;61288;53.446;-2.266;2023-02-19T01:30:41;101914.69;;;6.99;87.72
73101;BME280;61288;53.446;-2.266;2023-02-19T01:33:08;101902.72;;;6.90;87.79
73101;BME280;61288;53.446;-2.266;2023-02-19T01:35:38;101908.78;;;6.81;88.40
73101;BME280;61288;53.446;-2.266;2023-02-19T01:38:07;101917.41;;;6.74;88.92
73101;BME280;61288;53.446;-2.266;2023-02-19T01:40:33;101918.31;;;6.68;88.73
73101;BME280;61288;53.446;-2.266;2023-02-19T01:42:59;101931.19;;;6.63;89.11
73101;BME280;61288;53.446;-2.266;2023-02-19T01:48:12;101955.25;;;6.58;88.88
73101;BME280;61288;53.446;-2.266;2023-02-19T01:50:44;101968.16;;;6.53;89.33
73101;BME280;61288;53.446;-2.266;2023-02-19T01:53:13;101985.31;;;6.51;89.34
73101;BME280;61288;53.446;-2.266;2023-02-19T01:55:43;101997.31;;;6.46;89.17
73101;BME280;61288;53.446;-2.266;2023-02-19T01:58:10;101998.19;;;6.42;90.21
73101;BME280;61288;53.446;-2.266;2023-02-19T02:00:36;102001.63;;;6.41;89.95
73101;BME280;61288;53.446;-2.266;2023-02-19T02:03:02;102005.94;;;6.40;89.22
73101;BME280;61288;53.446;-2.266;2023-02-19T02:05:43;102015.41;;;6.38;89.17
73101;BME280;61288;53.446;-2.266;2023-02-19T02:08:11;102015.41;;;6.30;88.65
73101;BME280;61288;53.446;-2.266;2023-02-19T02:10:56;102023.97;;;6.28;88.14
73101;BME280;61288;53.446;-2.266;2023-02-19T02:13:22;102021.41;;;6.26;88.30
73101;BME280;61288;53.446;-2.266;2023-02-19T02:15:59;102035.13;;;6.24;87.98
73101;BME280;61288;53.446;-2.266;2023-02-19T02:21:34;102056.56;;;6.22;87.60
73101;BME280;61288;53.446;-2.266;2023-02-19T02:32:50;102071.16;;;6.14;87.29
73101;BME280;61288;53.446;-2.266;2023-02-19T02:35:22;102077.16;;;6.12;86.91
73101;BME280;61288;53.446;-2.266;2023-02-19T02:37:52;102069.47;;;6.10;87.02
73101;BME280;61288;53.446;-2.266;2023-02-19T02:40:21;102074.63;;;6.07;86.79
73101;BME280;61288;53.446;-2.266;2023-02-19T02:42:46;102078.03;;;6.04;87.04
73101;BME280;61288;53.446;-2.266;2023-02-19T02:48:18;102070.28;;;5.92;86.97
73101;BME280;61288;53.446;-2.266;2023-02-19T02:53:16;102077.13;;;5.85;86.83
73101;BME280;61288;53.446;-2.266;2023-02-19T02:56:05;102079.69;;;5.79;87.04
73101;BME280;61288;53.446;-2.266;2023-02-19T02:58:32;102075.38;;;5.73;86.54
73101;BME280;61288;53.446;-2.266;2023-02-19T03:01:08;102091.69;;;5.68;86.70
73101;BME280;61288;53.446;-2.266;2023-02-19T03:04:00;102093.38;;;5.64;87.71
73101;BME280;61288;53.446;-2.266;2023-02-19T03:06:29;102109.63;;;5.61;87.63
73101;BME280;61288;53.446;-2.266;2023-02-19T03:09:01;102107.94;;;5.56;87.47
73101;BME280;61288;53.446;-2.266;2023-02-19T03:11:33;102111.34;;;5.52;86.88
73101;BME280;61288;53.446;-2.266;2023-02-19T03:14:23;102119.91;;;5.47;87.08
73101;BME280;61288;53.446;-2.266;2023-02-19T03:17:41;102127.56;;;5.44;87.22
73101;BME280;61288;53.446;-2.266;2023-02-19T03:20:29;102121.56;;;5.42;87.72
73101;BME280;61288;53.446;-2.266;2023-02-19T03:22:59;102122.44;;;5.41;87.98
73101;BME280;61288;53.446;-2.266;2023-02-19T03:25:30;102125.00;;;5.37;87.55
73101;BME280;61288;53.446;-2.266;2023-02-19T03:28:23;102138.69;;;5.32;87.11
73101;BME280;61288;53.446;-2.266;2023-02-19T03:31:14;102154.06;;;5.26;87.32
73101;BME280;61288;53.446;-2.266;2023-02-19T03:33:43;102156.63;;;5.25;87.35
73101;BME280;61288;53.446;-2.266;2023-02-19T03:36:12;102152.31;;;5.22;87.05
73101;BME280;61288;53.446;-2.266;2023-02-19T03:41:26;102160.88;;;5.18;87.41
73101;BME280;61288;53.446;-2.266;2023-02-19T03:44:22;102167.72;;;5.14;88.07
73101;BME280;61288;53.446;-2.266;2023-02-19T03:46:52;102177.09;;;5.08;87.81
73101;BME280;61288;53.446;-2.266;2023-02-19T03:49:31;102180.50;;;5.05;87.97
73101;BME280;61288;53.446;-2.266;2023-02-19T03:55:17;102177.06;;;5.01;87.79
73101;BME280;61288;53.446;-2.266;2023-02-19T04:00:43;102183.88;;;4.98;88.16
73101;BME280;61288;53.446;-2.266;2023-02-19T04:03:15;102180.44;;;4.96;88.42
73101;BME280;61288;53.446;-2.266;2023-02-19T04:05:55;102188.13;;;4.93;88.38
73101;BME280;61288;53.446;-2.266;2023-02-19T04:08:24;102195.84;;;4.93;88.77
73101;BME280;61288;53.446;-2.266;2023-02-19T04:10:52;102189.84;;;4.90;88.79
73101;BME280;61288;53.446;-2.266;2023-02-19T04:13:21;102194.97;;;4.90;88.41
73101;BME280;61288;53.446;-2.266;2023-02-19T04:15:50;102199.22;;;4.87;88.49
73101;BME280;61288;53.446;-2.266;2023-02-19T04:18:21;102192.38;;;4.87;88.74
73101;BME280;61288;53.446;-2.266;2023-02-19T04:20:49;102200.94;;;4.88;88.31
73101;BME280;61288;53.446;-2.266;2023-02-19T04:23:17;102201.78;;;4.85;88.33
73101;BME280;61288;53.446;-2.266;2023-02-19T04:25:46;102200.91;;;4.83;88.73
73101;BME280;61288;53.446;-2.266;2023-02-19T04:28:17;102202.59;;;4.83;88.90
73101;BME280;61288;53.446;-2.266;2023-02-19T04:30:43;102215.47;;;4.81;89.04
73101;BME280;61288;53.446;-2.266;2023-02-19T04:33:09;102225.66;;;4.78;88.84
73101;BME280;61288;53.446;-2.266;2023-02-19T04:35:35;102232.53;;;4.79;88.91
73101;BME280;61288;53.446;-2.266;2023-02-19T04:38:00;102236.81;;;4.80;89.00
73101;BME280;61288;53.446;-2.266;2023-02-19T04:40:26;102234.25;;;4.80;88.90
73101;BME280;61288;53.446;-2.266;2023-02-19T04:42:51;102239.44;;;4.83;88.59
73101;BME280;61288;53.446;-2.266;2023-02-19T04:45:17;102237.72;;;4.84;89.12
73101;BME280;61288;53.446;-2.266;2023-02-19T04:47:42;102241.16;;;4.86;88.87
73101;BME280;61288;53.446;-2.266;2023-02-19T04:50:09;102236.88;;;4.86;88.76
73101;BME280;61288;53.446;-2.266;2023-02-19T04:52:35;102243.72;;;4.86;88.73
73101;BME280;61288;53.446;-2.266;2023-02-19T04:55:00;102248.88;;;4.87;89.16
73101;BME280;61288;53.446;-2.266;2023-02-19T04:57:27;102254.88;;;4.86;89.06
73101;BME280;61288;53.446;-2.266;2023-02-19T04:59:52;102254.03;;;4.90;89.13
73101;BME280;61288;53.446;-2.266;2023-02-19T05:02:18;102259.19;;;4.90;88.90
73101;BME280;61288;53.446;-2.266;2023-02-19T05:04:43;102261.75;;;4.90;89.19
73101;BME280;61288;53.446;-2.266;2023-02-19T05:07:09;102260.88;;;4.90;89.17
73101;BME280;61288;53.446;-2.266;2023-02-19T05:09:34;102264.31;;;4.92;88.96
73101;BME280;61288;53.446;-2.266;2023-02-19T05:12:00;102263.50;;;4.95;88.96
73101;BME280;61288;53.446;-2.266;2023-02-19T05:14:25;102262.66;;;4.96;88.55
73101;BME280;61288;53.446;-2.266;2023-02-19T05:16:51;102261.78;;;4.97;88.65
73101;BME280;61288;53.446;-2.266;2023-02-19T05:19:17;102260.91;;;4.96;89.31
73101;BME280;61288;53.446;-2.266;2023-02-19T05:21:42;102266.91;;;4.95;89.03
73101;BME280;61288;53.446;-2.266;2023-02-19T05:24:08;102262.66;;;4.97;88.77
73101;BME280;61288;53.446;-2.266;2023-02-19T05:26:33;102269.47;;;4.95;89.15
73101;BME280;61288;53.446;-2.266;2023-02-19T05:28:59;102277.19;;;4.94;89.18
73101;BME280;61288;53.446;-2.266;2023-02-19T05:32:00;102293.44;;;4.93;89.03
73101;BME280;61288;53.446;-2.266;2023-02-19T05:34:26;102295.16;;;4.94;89.11
73101;BME280;61288;53.446;-2.266;2023-02-19T05:36:51;102300.31;;;4.94;89.76
73101;BME280;61288;53.446;-2.266;2023-02-19T05:39:17;102302.84;;;4.92;89.66
73101;BME280;61288;53.446;-2.266;2023-02-19T05:41:44;102291.72;;;4.91;89.05
73101;BME280;61288;53.446;-2.266;2023-02-19T05:44:09;102278.88;;;4.91;89.70
73101;BME280;61288;53.446;-2.266;2023-02-19T05:46:35;102284.03;;;4.91;89.76
73101;BME280;61288;53.446;-2.266;2023-02-19T05:49:01;102280.56;;;4.91;89.16
73101;BME280;61288;53.446;-2.266;2023-02-19T05:51:27;102263.44;;;4.88;89.66
73101;BME280;61288;53.446;-2.266;2023-02-19T05:53:54;102265.16;;;4.89;89.17
73101;BME280;61288;53.446;-2.266;2023-02-19T05:56:31;102260.88;;;4.88;89.35
73101;BME280;61288;53.446;-2.266;2023-02-19T05:58:58;102263.44;;;4.90;88.99
73101;BME280;61288;53.446;-2.266;2023-02-19T06:01:26;102278.84;;;4.90;89.05
73101;BME280;61288;53.446;-2.266;2023-02-19T06:03:53;102281.44;;;4.88;89.33
73101;BME280;61288;53.446;-2.266;2023-02-19T06:06:20;102289.13;;;4.88;89.31
73101;BME280;61288;53.446;-2.266;2023-02-19T06:08:48;102300.25;;;4.89;89.26
73101;BME280;61288;53.446;-2.266;2023-02-19T06:11:17;102306.25;;;4.88;89.57
73101;BME280;61288;53.446;-2.266;2023-02-19T06:13:43;102312.25;;;4.88;89.89
73101;BME280;61288;53.446;-2.266;2023-02-19T06:16:09;102321.66;;;4.88;89.95
73101;BME280;61288;53.446;-2.266;2023-02-19T06:18:34;102328.53;;;4.90;89.57
73101;BME280;61288;53.446;-2.266;2023-02-19T06:21:01;102332.81;;;4.91;89.80
73101;BME280;61288;53.446;-2.266;2023-02-19T06:23:27;102333.66;;;4.92;89.62
73101;BME280;61288;53.446;-2.266;2023-02-19T06:25:53;102336.25;;;4.92;89.65
73101;BME280;61288;53.446;-2.266;2023-02-19T06:28:19;102337.97;;;4.91;89.78
73101;BME280;61288;53.446;-2.266;2023-02-19T06:30:45;102336.25;;;4.90;90.10
73101;BME280;61288;53.446;-2.266;2023-02-19T06:33:10;102332.81;;;4.88;89.97
73101;BME280;61288;53.446;-2.266;2023-02-19T06:35:36;102325.94;;;4.87;90.36
73101;BME280;61288;53.446;-2.266;2023-02-19T06:38:01;102337.91;;;4.85;90.44
73101;BME280;61288;53.446;-2.266;2023-02-19T06:40:27;102341.31;;;4.86;91.21
73101;BME280;61288;53.446;-2.266;2023-02-19T06:42:53;102359.31;;;4.86;91.34
73101;BME280;61288;53.446;-2.266;2023-02-19T06:45:19;102390.16;;;4.87;91.42
73101;BME280;61288;53.446;-2.266;2023-02-19T06:47:44;102420.97;;;4.89;91.48
73101;BME280;61288;53.446;-2.266;2023-02-19T06:50:10;102373.06;;;4.89;91.42
73101;BME280;61288;53.446;-2.266;2023-02-19T06:52:35;102349.09;;;4.90;91.69
73101;BME280;61288;53.446;-2.266;2023-02-19T06:55:00;102331.94;;;4.88;91.69
73101;BME280;61288;53.446;-2.266;2023-02-19T06:57:26;102324.22;;;4.86;91.84
73101;BME280;61288;53.446;-2.266;2023-02-19T06:59:51;102332.78;;;4.85;92.09
73101;BME280;61288;53.446;-2.266;2023-02-19T07:02:17;102320.72;;;4.80;92.71
73101;BME280;61288;53.446;-2.266;2023-02-19T07:04:42;102332.69;;;4.77;93.92
73101;BME280;61288;53.446;-2.266;2023-02-19T07:07:10;102336.94;;;4.75;94.37
73101;BME280;61288;53.446;-2.266;2023-02-19T07:09:36;102325.81;;;4.73;94.33
73101;BME280;61288;53.446;-2.266;2023-02-19T07:12:02;102324.94;;;4.73;95.16
73101;BME280;61288;53.446;-2.266;2023-02-19T07:14:27;102305.25;;;4.73;95.07
73101;BME280;61288;53.446;-2.266;2023-02-19T07:16:54;102301.84;;;4.74;95.49
73101;BME280;61288;53.446;-2.266;2023-02-19T07:19:19;102294.13;;;4.76;95.07
73101;BME280;61288;53.446;-2.266;2023-02-19T07:21:45;102302.72;;;4.76;95.71
73101;BME280;61288;53.446;-2.266;2023-02-19T07:24:10;102303.53;;;4.74;95.74
73101;BME280;61288;53.446;-2.266;2023-02-19T07:26:36;102303.50;;;4.71;95.70
73101;BME280;61288;53.446;-2.266;2023-02-19T07:29:02;102309.50;;;4.70;95.79
73101;BME280;61288;53.446;-2.266;2023-02-19T07:31:27;102318.06;;;4.70;96.25
73101;BME280;61288;53.446;-2.266;2023-02-19T07:33:54;102324.94;;;4.71;96.08
73101;BME280;61288;53.446;-2.266;2023-02-19T07:36:21;102328.34;;;4.70;96.21
73101;BME280;61288;53.446;-2.266;2023-02-19T07:38:52;102342.94;;;4.74;96.36
73101;BME280;61288;53.446;-2.266;2023-02-19T07:41:19;102348.06;;;4.76;96.15
73101;BME280;61288;53.446;-2.266;2023-02-19T07:43:44;102363.47;;;4.76;96.02
73101;BME280;61288;53.446;-2.266;2023-02-19T07:46:12;102365.22;;;4.80;96.22
73101;BME280;61288;53.446;-2.266;2023-02-19T07:48:39;102368.69;;;4.84;95.79
73101;BME280;61288;53.446;-2.266;2023-02-19T07:51:06;102367.00;;;4.86;96.04
73101;BME280;61288;53.446;-2.266;2023-02-19T07:53:34;102374.75;;;4.89;95.87
73101;BME280;61288;53.446;-2.266;2023-02-19T07:56:01;102389.34;;;4.91;95.60
73101;BME280;61288;53.446;-2.266;2023-02-19T07:58:28;102387.66;;;4.94;95.10
73101;BME280;61288;53.446;-2.266;2023-02-19T08:00:54;102407.38;;;4.98;95.14
73101;BME280;61288;53.446;-2.266;2023-02-19T08:03:20;102420.25;;;4.99;95.01
73101;BME280;61288;53.446;-2.266;2023-02-19T08:05:45;102419.41;;;5.02;94.72
73101;BME280;61288;53.446;-2.266;2023-02-19T08:08:14;102424.56;;;5.03;94.66
73101;BME280;61288;53.446;-2.266;2023-02-19T08:10:40;102418.59;;;5.04;94.46
73101;BME280;61288;53.446;-2.266;2023-02-19T08:13:26;102384.34;;;5.05;94.20
73101;BME280;61288;53.446;-2.266;2023-02-19T08:18:27;102366.41;;;5.12;93.90
73101;BME280;61288;53.446;-2.266;2023-02-19T08:20:54;102365.59;;;5.16;94.07
73101;BME280;61288;53.446;-2.266;2023-02-19T08:23:20;102376.78;;;5.24;93.94
73101;BME280;61288;53.446;-2.266;2023-02-19T08:25:46;102374.38;;;5.40;93.17
73101;BME280;61288;53.446;-2.266;2023-02-19T08:28:12;102376.06;;;5.42;92.67
73101;BME280;61288;53.446;-2.266;2023-02-19T08:30:43;102388.94;;;5.45;92.53
73101;BME280;61288;53.446;-2.266;2023-02-19T08:33:11;102389.00;;;5.48;91.95
73101;BME280;61288;53.446;-2.266;2023-02-19T08:35:37;102365.94;;;5.58;92.13
73101;BME280;61288;53.446;-2.266;2023-02-19T08:38:04;102375.44;;;5.70;91.74
73101;BME280;61288;53.446;-2.266;2023-02-19T08:40:32;102395.25;;;5.82;91.44
73101;BME280;61288;53.446;-2.266;2023-02-19T08:43:03;102392.09;;;6.28;90.99
73101;BME280;61288;53.446;-2.266;2023-02-19T08:45:30;102393.03;;;6.45;89.84
73101;BME280;61288;53.446;-2.266;2023-02-19T08:47:56;102384.50;;;6.60;88.87
73101;BME280;61288;53.446;-2.266;2023-02-19T08:50:21;102406.00;;;6.72;87.69
73101;BME280;61288;53.446;-2.266;2023-02-19T08:52:47;102400.84;;;6.69;87.51
73101;BME280;61288;53.446;-2.266;2023-02-19T08:55:12;102424.00;;;6.62;87.23
73101;BME280;61288;53.446;-2.266;2023-02-19T08:57:38;102430.03;;;6.64;87.96
73101;BME280;61288;53.446;-2.266;2023-02-19T09:00:05;102413.69;;;6.59;87.37
73101;BME280;61288;53.446;-2.266;2023-02-19T09:02:31;102425.69;;;6.48;87.89
73101;BME280;61288;53.446;-2.266;2023-02-19T09:04:57;102440.19;;;6.33;87.86
73101;BME280;61288;53.446;-2.266;2023-02-19T09:07:22;102430.75;;;6.31;88.38
73101;BME280;61288;53.446;-2.266;2023-02-19T09:09:49;102431.59;;;6.31;88.49
73101;BME280;61288;53.446;-2.266;2023-02-19T09:12:15;102431.63;;;6.41;88.39
73101;BME280;61288;53.446;-2.266;2023-02-19T09:14:40;102438.56;;;6.51;88.34
73101;BME280;61288;53.446;-2.266;2023-02-19T09:17:07;102446.34;;;6.63;87.76
73101;BME280;61288;53.446;-2.266;2023-02-19T09:19:34;102444.69;;;6.81;87.17
73101;BME280;61288;53.446;-2.266;2023-02-19T09:22:02;102448.19;;;7.11;85.99
73101;BME280;61288;53.446;-2.266;2023-02-19T09:24:28;102452.53;;;7.35;85.23
73101;BME280;61288;53.446;-2.266;2023-02-19T09:26:54;102444.75;;;7.12;84.68
73101;BME280;61288;53.446;-2.266;2023-02-19T09:29:21;102447.38;;;7.18;85.62
73101;BME280;61288;53.446;-2.266;2023-02-19T09:31:48;102453.41;;;7.31;84.84
73101;BME280;61288;53.446;-2.266;2023-02-19T09:34:13;102460.25;;;7.15;85.63
73101;BME280;61288;53.446;-2.266;2023-02-19T09:36:39;102455.94;;;7.25;85.38
73101;BME280;61288;53.446;-2.266;2023-02-19T09:39:06;102454.22;;;7.27;85.93
73101;BME280;61288;53.446;-2.266;2023-02-19T09:41:34;102455.13;;;7.32;84.28
73101;BME280;61288;53.446;-2.266;2023-02-19T09:44:05;102436.19;;;7.32;84.92
73101;BME280;61288;53.446;-2.266;2023-02-19T09:49:05;102453.41;;;7.75;83.54
73101;BME280;61288;53.446;-2.266;2023-02-19T09:51:34;102456.84;;;7.69;83.51
73101;BME280;61288;53.446;-2.266;2023-02-19T09:54:03;102444.81;;;7.70;84.40
73101;BME280;61288;53.446;-2.266;2023-02-19T09:56:30;102450.84;;;7.51;84.46
73101;BME280;61288;53.446;-2.266;2023-02-19T09:58:57;102439.63;;;7.60;85.01
73101;BME280;61288;53.446;-2.266;2023-02-19T10:01:26;102450.81;;;7.56;83.54
73101;BME280;61288;53.446;-2.266;2023-02-19T10:03:53;102451.66;;;7.44;83.97
73101;BME280;61288;53.446;-2.266;2023-02-19T10:06:21;102443.94;;;7.38;84.48
73101;BME280;61288;53.446;-2.266;2023-02-19T10:08:55;102443.09;;;7.47;84.88
73101;BME280;61288;53.446;-2.266;2023-02-19T10:11:24;102455.16;;;7.49;84.51
73101;BME280;61288;53.446;-2.266;2023-02-19T10:14:17;102458.59;;;7.48;84.24
73101;BME280;61288;53.446;-2.266;2023-02-19T10:16:45;102454.28;;;7.57;83.90
73101;BME280;61288;53.446;-2.266;2023-02-19T10:19:13;102448.25;;;7.97;83.98
73101;BME280;61288;53.446;-2.266;2023-02-19T10:21:40;102444.75;;;8.19;81.90
73101;BME280;61288;53.446;-2.266;2023-02-19T10:24:07;102445.59;;;8.24;82.11
73101;BME280;61288;53.446;-2.266;2023-02-19T10:26:36;102454.16;;;8.34;81.59
73101;BME280;61288;53.446;-2.266;2023-02-19T10:29:03;102464.50;;;8.27;81.97
73101;BME280;61288;53.446;-2.266;2023-02-19T10:31:30;102459.38;;;8.19;81.61
73101;BME280;61288;53.446;-2.266;2023-02-19T10:33:58;102464.53;;;8.17;82.55
73101;BME280;61288;53.446;-2.266;2023-02-19T10:36:37;102470.56;;;8.24;82.17
73101;BME280;61288;53.446;-2.266;2023-02-19T10:39:48;102477.47;;;8.16;82.35
73101;BME280;61288;53.446;-2.266;2023-02-19T10:42:21;102474.88;;;8.03;81.79
73101;BME280;61288;53.446;-2.266;2023-02-19T10:44:58;102474.03;;;8.07;82.72
73101;BME280;61288;53.446;-2.266;2023-02-19T10:47:27;102476.63;;;7.93;82.35
73101;BME280;61288;53.446;-2.266;2023-02-19T10:49:56;102478.34;;;7.85;83.25
73101;BME280;61288;53.446;-2.266;2023-02-19T10:52:32;102471.50;;;7.83;83.47
73101;BME280;61288;53.446;-2.266;2023-02-19T10:55:25;102460.28;;;7.90;83.12
73101;BME280;61288;53.446;-2.266;2023-02-19T10:57:53;102461.13;;;7.95;83.71
73101;BME280;61288;53.446;-2.266;2023-02-19T11:00:27;102472.31;;;8.03;83.85
73101;BME280;61288;53.446;-2.266;2023-02-19T11:03:23;102467.16;;;8.08;83.20
73101;BME280;61288;53.446;-2.266;2023-02-19T11:05:56;102466.28;;;7.98;83.60
73101;BME280;61288;53.446;-2.266;2023-02-19T11:08:24;102475.78;;;7.90;83.80
73101;BME280;61288;53.446;-2.266;2023-02-19T11:10:51;102480.91;;;7.77;84.71
73101;BME280;61288;53.446;-2.266;2023-02-19T11:13:37;102469.75;;;7.78;85.71
73101;BME280;61288;53.446;-2.266;2023-02-19T11:16:07;102469.72;;;7.92;85.15
73101;BME280;61288;53.446;-2.266;2023-02-19T11:18:32;102471.47;;;7.95;84.35
73101;BME280;61288;53.446;-2.266;2023-02-19T11:21:05;102475.75;;;7.96;84.57
73101;BME280;61288;53.446;-2.266;2023-02-19T11:23:36;102486.06;;;8.08;84.78
73101;BME280;61288;53.446;-2.266;2023-02-19T11:26:17;102480.88;;;8.30;85.06
73101;BME280;61288;53.446;-2.266;2023-02-19T11:28:43;102488.59;;;8.44;84.35
73101;BME280;61288;53.446;-2.266;2023-02-19T11:31:23;102478.28;;;8.38;83.73
73101;BME280;61288;53.446;-2.266;2023-02-19T11:33:58;102478.28;;;8.33;83.31
73101;BME280;61288;53.446;-2.266;2023-02-19T11:36:30;102482.59;;;8.27;83.29
73101;BME280;61288;53.446;-2.266;2023-02-19T11:55:17;102441.19;;;8.64;82.81
73101;BME280;61288;53.446;-2.266;2023-02-19T11:57:46;102437.63;;;8.84;81.35
73101;BME280;61288;53.446;-2.266;2023-02-19T12:03:15;102424.63;;;9.01;79.46
73101;BME280;61288;53.446;-2.266;2023-02-19T12:17:07;102438.41;;;10.09;73.45
73101;BME280;61288;53.446;-2.266;2023-02-19T12:20:01;102435.88;;;10.03;74.88
73101;BME280;61288;53.446;-2.266;2023-02-19T12:22:32;102438.28;;;10.20;74.64
73101;BME280;61288;53.446;-2.266;2023-02-19T12:36:42;102432.41;;;10.02;72.96
73101;BME280;61288;53.446;-2.266;2023-02-19T12:44:56;102422.59;;;10.34;71.35
73101;BME280;61288;53.446;-2.266;2023-02-19T12:47:27;102419.28;;;10.21;72.51
73101;BME280;61288;53.446;-2.266;2023-02-19T12:50:15;102418.47;;;10.16;71.89
73101;BME280;61288;53.446;-2.266;2023-02-19T12:52:51;102421.09;;;10.13;72.51
73101;BME280;61288;53.446;-2.266;2023-02-19T12:55:33;102410.66;;;10.17;72.62
73101;BME280;61288;53.446;-2.266;2023-02-19T12:58:04;102407.97;;;10.30;73.79
73101;BME280;61288;53.446;-2.266;2023-02-19T13:00:52;102413.50;;;9.94;72.88
73101;BME280;61288;53.446;-2.266;2023-02-19T13:03:28;102408.59;;;9.66;73.35
73101;BME280;61288;53.446;-2.266;2023-02-19T13:06:40;102414.63;;;9.70;73.54
73101;BME280;61288;53.446;-2.266;2023-02-19T13:12:17;102399.22;;;9.54;74.74
73101;BME280;61288;53.446;-2.266;2023-02-19T13:14:48;102382.81;;;9.55;74.72
73101;BME280;61288;53.446;-2.266;2023-02-19T13:17:23;102376.88;;;9.44;74.38
73101;BME280;61288;53.446;-2.266;2023-02-19T13:19:55;102368.31;;;9.37;75.17
73101;BME280;61288;53.446;-2.266;2023-02-19T13:22:38;102341.53;;;9.43;75.35
73101;BME280;61288;53.446;-2.266;2023-02-19T13:26:00;102327.75;;;9.41;75.39
73101;BME280;61288;53.446;-2.266;2023-02-19T13:28:42;102342.25;;;9.57;75.49
73101;BME280;61288;53.446;-2.266;2023-02-19T13:36:38;102319.72;;;9.67;74.87
73101;BME280;61288;53.446;-2.266;2023-02-19T13:39:05;102311.94;;;9.70;74.60
73101;BME280;61288;53.446;-2.266;2023-02-19T13:41:39;102299.94;;;9.63;74.39
73101;BME280;61288;53.446;-2.266;2023-02-19T13:44:20;102312.03;;;9.59;75.32
73101;BME280;61288;53.446;-2.266;2023-02-19T13:46:48;102322.44;;;9.53;74.92
73101;BME280;61288;53.446;-2.266;2023-02-19T13:49:35;102321.63;;;9.52;75.14
73101;BME280;61288;53.446;-2.266;2023-02-19T14:01:00;102306.19;;;9.42;75.91
73101;BME280;61288;53.446;-2.266;2023-02-19T14:06:04;102314.75;;;9.47;75.40
73101;BME280;61288;53.446;-2.266;2023-02-19T14:08:52;102313.03;;;9.44;75.80
73101;BME280;61288;53.446;-2.266;2023-02-19T14:14:26;102285.28;;;9.60;75.43
73101;BME280;61288;53.446;-2.266;2023-02-19T14:19:50;102273.84;;;9.80;75.54
73101;BME280;61288;53.446;-2.266;2023-02-19T14:28:12;102267.53;;;10.03;74.81
73101;BME280;61288;53.446;-2.266;2023-02-19T14:33:30;102269.25;;;10.02;74.94
73101;BME280;61288;53.446;-2.266;2023-02-19T14:41:12;102248.50;;;10.07;73.54
73101;BME280;61288;53.446;-2.266;2023-02-19T14:43:39;102236.41;;;10.06;74.46
73101;BME280;61288;53.446;-2.266;2023-02-19T14:46:16;102233.00;;;10.02;73.48
73101;BME280;61288;53.446;-2.266;2023-02-19T14:48:47;102221.81;;;10.00;74.51
73101;BME280;61288;53.446;-2.266;2023-02-19T14:51:40;102226.91;;;10.06;74.09
73101;BME280;61288;53.446;-2.266;2023-02-19T14:54:15;102236.28;;;10.17;74.12
73101;BME280;61288;53.446;-2.266;2023-02-19T14:56:44;102231.84;;;10.23;73.82
73101;BME280;61288;53.446;-2.266;2023-02-19T15:01:35;102224.84;;;10.30;73.36
73101;BME280;61288;53.446;-2.266;2023-02-19T15:04:01;102224.00;;;10.30;72.59
73101;BME280;61288;53.446;-2.266;2023-02-19T15:06:27;102233.59;;;10.21;71.68
73101;BME280;61288;53.446;-2.266;2023-02-19T15:08:57;102233.69;;;10.17;72.33
73101;BME280;61288;53.446;-2.266;2023-02-19T15:11:26;102231.88;;;10.22;72.41